createdAt,value
2018-12-15T00:00:54.754Z,45.77
2018-12-15T00:03:22.292Z,45.33
2018-12-15T00:05:49.798Z,44.10
2018-12-15T00:08:17.308Z,45.17
2018-12-15T00:10:44.825Z,44.10
2018-12-15T00:13:12.428Z,46.57
2018-12-15T00:15:39.946Z,45.63
2018-12-15T00:18:07.469Z,42.67
2018-12-15T00:20:34.977Z,46.57
2018-12-15T00:23:02.514Z,44.63
2018-12-15T00:25:30.151Z,45.17
2018-12-15T00:27:57.665Z,44.27
2018-12-15T00:30:25.319Z,45.03
2018-12-15T00:32:52.842Z,42.60
2018-12-15T00:35:20.383Z,41.60
2018-12-15T00:37:47.895Z,43.07
2018-12-15T00:40:15.411Z,43.93
2018-12-15T00:42:42.937Z,41.93
2018-12-15T00:45:10.450Z,43.70
2018-12-15T00:47:37.975Z,42.63
2018-12-15T00:50:05.489Z,37.83
2018-12-15T00:52:33.024Z,43.97
2018-12-15T00:55:00.554Z,38.93
2018-12-15T00:57:28.068Z,38.47
2018-12-15T00:59:55.602Z,40.47
2018-12-15T01:02:23.124Z,40.37
2018-12-15T01:04:50.653Z,39.30
2018-12-15T01:07:18.168Z,39.50
2018-12-15T01:09:45.677Z,37.37
2018-12-15T01:12:13.194Z,39.43
2018-12-15T01:14:40.702Z,40.20
2018-12-15T01:17:08.209Z,40.20
2018-12-15T01:19:35.817Z,38.80
2018-12-15T01:22:03.324Z,38.47
2018-12-15T01:24:30.832Z,41.67
2018-12-15T01:26:58.426Z,36.67
2018-12-15T01:29:25.941Z,35.57
2018-12-15T01:31:53.461Z,35.67
2018-12-15T01:34:20.999Z,35.30
2018-12-15T01:36:48.502Z,35.13
2018-12-15T01:39:16.034Z,34.63
2018-12-15T01:41:43.580Z,33.77
2018-12-15T01:44:11.082Z,32.90
2018-12-15T01:46:38.587Z,36.43
2018-12-15T01:49:06.107Z,35.87
2018-12-15T01:51:33.618Z,37.17
2018-12-15T01:54:01.146Z,37.53
2018-12-15T01:56:28.674Z,40.03
2018-12-15T01:58:56.273Z,37.40
2018-12-15T02:01:23.786Z,35.87
2018-12-15T02:03:51.314Z,36.27
2018-12-15T02:06:18.820Z,34.67
2018-12-15T02:08:46.314Z,36.33
2018-12-15T02:11:13.822Z,36.23
2018-12-15T02:13:41.331Z,36.33
2018-12-15T02:16:08.840Z,35.33
2018-12-15T02:18:36.360Z,33.67
2018-12-15T02:21:03.877Z,35.13
2018-12-15T02:23:31.394Z,33.93
2018-12-15T02:25:58.894Z,37.13
2018-12-15T02:28:26.396Z,35.13
2018-12-15T02:30:53.925Z,34.60
2018-12-15T02:33:21.446Z,39.13
2018-12-15T02:35:48.988Z,37.10
2018-12-15T02:38:16.545Z,34.90
2018-12-15T02:40:44.147Z,35.30
2018-12-15T02:43:11.663Z,35.17
2018-12-15T02:45:39.166Z,34.83
2018-12-15T02:48:06.685Z,35.47
2018-12-15T02:50:34.230Z,33.97
2018-12-15T02:53:01.747Z,31.90
2018-12-15T02:55:29.281Z,32.67
2018-12-15T02:57:56.794Z,32.57
2018-12-15T03:00:24.303Z,33.93
2018-12-15T03:02:51.811Z,32.73
2018-12-15T03:05:19.315Z,35.60
2018-12-15T03:07:46.835Z,29.13
2018-12-15T03:10:14.383Z,33.67
2018-12-15T03:12:41.933Z,29.23
2018-12-15T03:15:09.445Z,30.67
2018-12-15T03:17:36.987Z,30.77
2018-12-15T03:20:04.583Z,32.37
2018-12-15T03:22:32.096Z,31.43
2018-12-15T03:24:59.608Z,29.97
2018-12-15T03:27:27.135Z,31.73
2018-12-15T03:29:54.649Z,34.20
2018-12-15T03:32:22.182Z,30.13
2018-12-15T03:34:49.685Z,31.53
2018-12-15T03:37:17.222Z,30.17
2018-12-15T03:39:44.744Z,29.27
2018-12-15T03:42:12.291Z,32.83
2018-12-15T03:44:39.844Z,30.07
2018-12-15T03:47:07.355Z,28.07
2018-12-15T03:49:35.010Z,30.53
2018-12-15T03:52:02.539Z,29.83
2018-12-15T03:54:30.046Z,28.70
2018-12-15T03:56:57.654Z,29.90
2018-12-15T03:59:25.443Z,29.80
2018-12-15T04:01:52.967Z,33.33
2018-12-15T04:04:20.495Z,32.63
2018-12-15T04:06:48.089Z,30.15
2018-12-15T04:09:15.611Z,27.67
2018-12-15T04:11:43.137Z,29.77
2018-12-15T04:14:10.663Z,30.30
2018-12-15T04:16:38.181Z,27.52
2018-12-15T04:19:05.727Z,30.55
2018-12-15T04:21:33.243Z,27.25
2018-12-15T04:24:00.766Z,29.00
2018-12-15T04:26:28.312Z,27.87
2018-12-15T04:28:55.845Z,29.48
2018-12-15T04:31:23.455Z,25.43
2018-12-15T04:33:51.003Z,27.45
2018-12-15T04:36:18.518Z,25.27
2018-12-15T04:38:46.042Z,27.30
2018-12-15T04:41:13.551Z,23.15
2018-12-15T04:43:41.126Z,26.45
2018-12-15T04:46:08.663Z,24.65
2018-12-15T04:48:36.202Z,24.43
2018-12-15T04:51:03.736Z,27.27
2018-12-15T04:53:31.245Z,24.55
2018-12-15T04:55:58.770Z,26.05
2018-12-15T04:58:26.302Z,25.12
2018-12-15T05:00:53.831Z,26.37
2018-12-15T05:03:22.839Z,27.50
2018-12-15T05:05:50.583Z,24.25
2018-12-15T05:08:18.118Z,24.82
2018-12-15T05:10:45.628Z,25.37
2018-12-15T05:13:13.275Z,25.72
2018-12-15T05:15:40.787Z,23.50
2018-12-15T05:18:08.320Z,24.85
2018-12-15T05:20:35.871Z,22.27
2018-12-15T05:23:03.409Z,25.12
2018-12-15T05:25:30.934Z,23.05
2018-12-15T05:27:58.453Z,23.27
2018-12-15T05:30:26.097Z,22.65
2018-12-15T05:32:53.622Z,21.55
2018-12-15T05:35:21.414Z,21.30
2018-12-15T05:37:48.941Z,20.88
2018-12-15T05:40:16.467Z,23.05
2018-12-15T05:42:43.987Z,23.83
2018-12-15T05:45:11.503Z,24.32
2018-12-15T05:47:39.013Z,24.77
2018-12-15T05:50:06.775Z,23.73
2018-12-15T05:52:34.297Z,23.02
2018-12-15T05:55:01.820Z,21.20
2018-12-15T05:57:29.356Z,23.02
2018-12-15T05:59:56.889Z,21.90
2018-12-15T06:02:25.013Z,24.45
2018-12-15T06:04:53.610Z,21.27
2018-12-15T06:07:21.262Z,24.25
2018-12-15T06:09:48.798Z,22.95
2018-12-15T06:12:16.436Z,22.93
2018-12-15T06:14:43.953Z,23.85
2018-12-15T06:17:11.470Z,21.87
2018-12-15T06:19:38.992Z,20.77
2018-12-15T06:22:06.548Z,23.32
2018-12-15T06:24:34.064Z,24.20
2018-12-15T06:27:01.583Z,21.57
2018-12-15T06:29:29.124Z,26.93
2018-12-15T06:31:56.647Z,22.32
2018-12-15T06:34:24.183Z,20.88
2018-12-15T06:36:51.711Z,22.25
2018-12-15T06:39:19.248Z,21.25
2018-12-15T06:41:46.755Z,22.20
2018-12-15T06:44:14.418Z,22.20
2018-12-15T06:46:42.022Z,22.30
2018-12-15T06:49:09.562Z,22.10
2018-12-15T06:51:37.179Z,22.35
2018-12-15T06:54:04.767Z,26.25
2018-12-15T06:56:32.306Z,28.45
2018-12-15T06:58:59.890Z,26.40
2018-12-15T07:01:27.631Z,25.90
2018-12-15T07:03:55.218Z,25.52
2018-12-15T07:06:22.869Z,28.60
2018-12-15T07:08:50.380Z,28.87
2018-12-15T07:11:17.929Z,26.45
2018-12-15T07:13:45.643Z,28.77
2018-12-15T07:16:13.171Z,27.62
2018-12-15T07:18:44.792Z,30.65
2018-12-15T07:21:10.234Z,29.57
2018-12-15T07:23:37.774Z,29.82
2018-12-15T07:26:05.311Z,28.85
2018-12-15T07:28:33.161Z,28.83
2018-12-15T07:31:00.899Z,30.52
2018-12-15T07:33:28.420Z,28.60
2018-12-15T07:35:55.939Z,29.37
2018-12-15T07:38:23.459Z,27.00
2018-12-15T07:40:50.984Z,30.55
2018-12-15T07:43:18.507Z,30.12
2018-12-15T07:45:46.024Z,29.37
2018-12-15T07:48:13.733Z,29.77
2018-12-15T07:50:41.279Z,28.75
2018-12-15T07:53:08.829Z,29.82
2018-12-15T07:55:36.537Z,31.48
2018-12-15T07:58:04.062Z,30.97
2018-12-15T08:00:31.683Z,31.73
2018-12-15T08:02:59.215Z,28.30
2018-12-15T08:05:26.742Z,32.30
2018-12-15T08:07:54.271Z,32.65
2018-12-15T08:10:23.766Z,28.77
2018-12-15T08:13:02.602Z,32.53
2018-12-15T08:15:30.224Z,29.77
2018-12-15T08:17:57.741Z,32.90
2018-12-15T08:20:25.274Z,33.78
2018-12-15T08:22:52.789Z,33.95
2018-12-15T08:25:20.314Z,38.10
2018-12-15T08:27:47.862Z,34.33
2018-12-15T08:30:15.678Z,34.20
2018-12-15T08:32:43.277Z,28.73
2018-12-15T08:35:10.832Z,33.20
2018-12-15T08:37:38.368Z,30.97
2018-12-15T08:40:05.908Z,29.05
2018-12-15T08:42:33.455Z,32.53
2018-12-15T08:45:01.006Z,34.90
2018-12-15T08:47:28.530Z,30.92
2018-12-15T08:49:56.066Z,32.98
2018-12-15T08:52:24.364Z,33.58
2018-12-15T08:54:52.518Z,31.90
2018-12-15T08:57:25.190Z,33.55
2018-12-15T08:59:52.908Z,37.33
2018-12-15T09:02:20.504Z,34.55
2018-12-15T09:04:48.410Z,34.55
2018-12-15T09:07:16.637Z,33.88
2018-12-15T09:09:44.303Z,35.50
2018-12-15T09:12:11.834Z,33.18
2018-12-15T09:14:39.390Z,31.55
2018-12-15T09:17:06.947Z,33.78
2018-12-15T09:19:34.497Z,35.40
2018-12-15T09:22:02.025Z,32.98
2018-12-15T09:24:29.546Z,32.17
2018-12-15T09:26:57.085Z,31.80
2018-12-15T09:29:24.613Z,32.10
2018-12-15T09:31:52.130Z,32.73
2018-12-15T09:34:19.666Z,33.75
2018-12-15T09:36:47.202Z,33.67
2018-12-15T09:39:14.726Z,33.90
2018-12-15T09:41:42.260Z,34.78
2018-12-15T09:44:09.799Z,34.83
2018-12-15T09:46:37.332Z,34.57
2018-12-15T09:49:04.868Z,33.67
2018-12-15T09:51:32.474Z,31.57
2018-12-15T09:53:59.996Z,36.58
2018-12-15T09:56:27.521Z,31.62
2018-12-15T09:58:55.046Z,32.43
2018-12-15T10:01:22.672Z,35.77
2018-12-15T10:03:50.263Z,36.83
2018-12-15T10:06:17.998Z,32.43
2018-12-15T10:08:45.595Z,51.90
2018-12-15T10:11:13.103Z,33.43
2018-12-15T10:13:40.634Z,35.67
2018-12-15T10:16:08.333Z,35.93
2018-12-15T10:18:35.862Z,32.87
2018-12-15T10:21:03.552Z,35.47
2018-12-15T10:23:31.129Z,34.80
2018-12-15T10:25:58.649Z,33.43
2018-12-15T10:28:26.179Z,29.40
2018-12-15T10:30:59.456Z,32.47
2018-12-15T10:33:26.989Z,34.80
2018-12-15T10:35:54.497Z,34.57
2018-12-15T10:38:22.022Z,35.77
2018-12-15T10:40:49.545Z,32.03
2018-12-15T10:43:17.055Z,32.83
2018-12-15T10:45:44.567Z,34.67
2018-12-15T10:48:12.107Z,34.03
2018-12-15T10:50:39.625Z,32.90
2018-12-15T10:53:07.257Z,35.20
2018-12-15T10:55:34.781Z,33.33
2018-12-15T10:58:02.324Z,31.63
2018-12-15T11:00:35.567Z,32.13
2018-12-15T11:03:03.112Z,33.27
2018-12-15T11:05:30.644Z,30.30
2018-12-15T11:07:58.195Z,35.50
2018-12-15T11:10:32.360Z,34.33
2018-12-15T11:13:00.098Z,32.80
2018-12-15T11:15:28.052Z,32.60
2018-12-15T11:17:55.582Z,30.97
2018-12-15T11:20:23.125Z,32.57
2018-12-15T11:22:50.664Z,31.27
2018-12-15T11:25:18.187Z,35.63
2018-12-15T11:27:46.445Z,33.20
2018-12-15T11:30:14.305Z,35.43
2018-12-15T11:32:43.062Z,32.03
2018-12-15T11:35:10.569Z,32.83
2018-12-15T11:37:38.095Z,33.67
2018-12-15T11:40:07.029Z,33.17
2018-12-15T11:42:34.811Z,37.87
2018-12-15T11:45:02.436Z,33.67
2018-12-15T11:47:30.072Z,33.23
2018-12-15T11:49:57.721Z,32.83
2018-12-15T11:52:26.819Z,32.73
2018-12-15T11:54:54.419Z,35.97
2018-12-15T11:57:21.942Z,34.90
2018-12-15T11:59:49.452Z,31.03
2018-12-15T12:02:17.006Z,33.00
2018-12-15T12:04:44.557Z,30.17
2018-12-15T12:07:12.624Z,31.53
2018-12-15T12:09:40.356Z,31.17
2018-12-15T12:12:07.896Z,31.13
2018-12-15T12:14:35.514Z,33.93
2018-12-15T12:17:03.052Z,35.93
2018-12-15T12:19:31.014Z,37.00
2018-12-15T12:21:58.558Z,30.20
2018-12-15T12:24:26.075Z,34.40
2018-12-15T12:26:53.630Z,34.43
2018-12-15T12:29:21.220Z,33.00
2018-12-15T12:31:49.022Z,29.73
2018-12-15T12:34:16.796Z,32.73
2018-12-15T12:39:19.890Z,33.57
2018-12-15T12:41:47.616Z,33.03
2018-12-15T12:44:15.150Z,35.53
2018-12-15T12:46:42.914Z,32.47
2018-12-15T12:49:11.828Z,32.17
2018-12-15T12:51:39.602Z,31.50
2018-12-15T12:54:07.145Z,30.70
2018-12-15T12:56:34.744Z,33.67
2018-12-15T12:59:02.359Z,38.43
2018-12-15T13:01:29.896Z,36.67
2018-12-15T13:03:57.433Z,31.83
2018-12-15T13:06:25.016Z,31.73
2018-12-15T13:08:52.718Z,32.77
2018-12-15T13:11:20.482Z,33.50
2018-12-15T13:13:48.033Z,32.07
2018-12-15T13:16:15.933Z,35.90
2018-12-15T13:18:43.799Z,29.73
2018-12-15T13:21:11.323Z,31.37
2018-12-15T13:23:38.843Z,33.57
2018-12-15T13:26:07.149Z,35.03
2018-12-15T13:28:35.163Z,33.03
2018-12-15T13:31:10.526Z,28.40
2018-12-15T13:33:38.671Z,31.03
2018-12-15T13:36:14.350Z,33.17
2018-12-15T13:38:41.871Z,33.23
2018-12-15T13:41:09.413Z,33.97
2018-12-15T13:43:36.933Z,35.07
2018-12-15T13:46:04.461Z,34.47
2018-12-15T13:48:32.454Z,34.77
2018-12-15T13:51:00.302Z,36.87
2018-12-15T13:53:28.348Z,32.00
2018-12-15T13:55:55.880Z,36.20
2018-12-15T13:58:25.935Z,33.70
2018-12-15T14:00:53.738Z,36.37
2018-12-15T14:03:21.257Z,35.33
2018-12-15T14:05:50.961Z,34.57
2018-12-15T14:08:18.660Z,35.53
2018-12-15T14:10:53.094Z,35.80
2018-12-15T14:13:20.616Z,33.50
2018-12-15T14:15:48.150Z,36.00
2018-12-15T14:18:15.660Z,32.40
2018-12-15T14:20:45.154Z,33.10
2018-12-15T14:23:12.728Z,33.33
2018-12-15T14:25:50.598Z,33.00
2018-12-15T14:28:19.107Z,35.80
2018-12-15T14:30:58.140Z,34.60
2018-12-15T14:33:26.675Z,33.43
2018-12-15T14:35:57.454Z,33.70
2018-12-15T14:38:25.409Z,34.90
2018-12-15T14:41:00.084Z,36.20
2018-12-15T14:43:27.947Z,32.07
2018-12-15T14:45:58.644Z,35.50
2018-12-15T14:48:26.212Z,34.27
2018-12-15T14:50:53.893Z,36.13
2018-12-15T14:53:21.429Z,31.07
2018-12-15T14:55:49.781Z,35.00
2018-12-15T14:58:17.322Z,32.37
2018-12-15T15:00:44.883Z,35.00
2018-12-15T15:03:12.675Z,35.23
2018-12-15T15:05:40.751Z,31.63
2018-12-15T15:08:08.551Z,35.40
2018-12-15T15:10:36.463Z,33.67
2018-12-15T15:13:04.349Z,31.57
2018-12-15T15:15:31.904Z,33.40
2018-12-15T15:17:59.455Z,34.93
2018-12-15T15:20:29.758Z,41.20
2018-12-15T15:22:56.537Z,35.87
2018-12-15T15:25:24.601Z,37.07
2018-12-15T15:27:52.129Z,37.20
2018-12-15T15:30:20.136Z,36.73
2018-12-15T15:32:47.911Z,34.23
2018-12-15T15:35:15.490Z,36.17
2018-12-15T15:37:43.063Z,34.87
2018-12-15T15:40:11.227Z,35.47
2018-12-15T15:42:38.969Z,36.87
2018-12-15T15:45:06.495Z,34.97
2018-12-15T15:47:34.025Z,45.07
2018-12-15T15:50:01.939Z,31.80
2018-12-15T15:52:29.568Z,33.60
2018-12-15T15:54:57.095Z,32.10
2018-12-15T15:57:24.863Z,37.03
2018-12-15T15:59:52.581Z,36.30
2018-12-15T16:02:20.274Z,35.87
2018-12-15T16:04:47.823Z,40.20
2018-12-15T16:07:15.494Z,35.10
2018-12-15T16:09:44.980Z,38.57
2018-12-15T16:12:12.669Z,38.30
2018-12-15T16:14:40.211Z,40.87
2018-12-15T16:17:07.825Z,36.80
2018-12-15T16:19:35.378Z,37.70
2018-12-15T16:22:02.903Z,37.73
2018-12-15T16:24:30.431Z,39.10
2018-12-15T16:26:58.004Z,38.60
2018-12-15T16:29:25.596Z,36.87
2018-12-15T16:31:53.381Z,37.90
2018-12-15T16:34:20.951Z,38.40
2018-12-15T16:36:48.533Z,36.27
2018-12-15T16:39:16.141Z,38.23
2018-12-15T16:41:43.802Z,39.33
2018-12-15T16:44:11.341Z,36.20
2018-12-15T16:46:38.953Z,37.57
2018-12-15T16:49:06.487Z,39.90
2018-12-15T16:51:34.007Z,45.47
2018-12-15T16:54:01.547Z,38.80
2018-12-15T16:56:29.078Z,39.17
2018-12-15T16:58:56.591Z,41.03
2018-12-15T17:01:24.135Z,40.67
2018-12-15T17:03:51.888Z,41.60
2018-12-15T17:06:19.403Z,40.50
2018-12-15T17:08:46.926Z,36.30
2018-12-15T17:11:14.465Z,39.27
2018-12-15T17:13:41.990Z,39.30
2018-12-15T17:16:09.513Z,37.03
2018-12-15T17:18:37.114Z,39.97
2018-12-15T17:21:04.648Z,37.90
2018-12-15T17:23:32.199Z,38.60
2018-12-15T17:25:59.729Z,35.60
2018-12-15T17:28:27.254Z,41.20
2018-12-15T17:30:54.840Z,37.57
2018-12-15T17:33:22.542Z,38.87
2018-12-15T17:35:50.080Z,40.30
2018-12-15T17:38:17.626Z,41.07
2018-12-15T17:40:45.233Z,42.30
2018-12-15T17:43:12.876Z,42.47
2018-12-15T17:45:40.398Z,39.20
2018-12-15T17:48:07.930Z,40.90
2018-12-15T17:50:35.675Z,48.27
2018-12-15T17:53:03.186Z,43.47
2018-12-15T17:55:30.692Z,41.63
2018-12-15T17:57:58.234Z,43.73
2018-12-15T18:00:25.786Z,39.27
2018-12-15T18:02:53.334Z,45.83
2018-12-15T18:05:20.911Z,46.87
2018-12-15T18:07:48.505Z,38.47
2018-12-15T18:10:16.023Z,42.53
2018-12-15T18:12:43.533Z,44.10
2018-12-15T18:15:11.058Z,39.37
2018-12-15T18:17:38.572Z,40.80
2018-12-15T18:20:07.313Z,42.80
2018-12-15T18:22:34.851Z,45.07
2018-12-15T18:25:02.362Z,43.87
2018-12-15T18:27:29.889Z,43.47
2018-12-15T18:29:57.517Z,46.07
2018-12-15T18:32:25.037Z,45.17
2018-12-15T18:34:52.557Z,46.37
2018-12-15T18:37:20.086Z,41.67
2018-12-15T18:39:47.596Z,44.10
2018-12-15T18:42:15.157Z,42.37
2018-12-15T18:44:42.676Z,45.27
2018-12-15T18:47:10.193Z,41.93
2018-12-15T18:49:37.944Z,42.27
2018-12-15T18:52:05.605Z,46.43
2018-12-15T18:54:33.120Z,45.73
2018-12-15T18:57:02.244Z,51.07
2018-12-15T18:59:35.011Z,48.30
2018-12-15T19:02:02.902Z,46.83
2018-12-15T19:04:30.691Z,46.77
2018-12-15T19:06:58.614Z,48.50
2018-12-15T19:09:26.123Z,49.87
2018-12-15T19:11:53.962Z,47.20
2018-12-15T19:14:21.655Z,44.87
2018-12-15T19:16:49.402Z,44.87
2018-12-15T19:19:17.538Z,45.73
2018-12-15T19:21:45.814Z,43.37
2018-12-15T19:24:13.878Z,44.70
2018-12-15T19:26:41.548Z,46.40
2018-12-15T19:29:09.289Z,49.07
2018-12-15T19:31:37.064Z,46.33
2018-12-15T19:34:04.582Z,49.77
2018-12-15T19:36:32.106Z,46.77
2018-12-15T19:38:59.623Z,45.50
2018-12-15T19:41:27.136Z,43.77
2018-12-15T19:43:54.713Z,45.33
2018-12-15T19:46:22.219Z,48.73
2018-12-15T19:48:49.825Z,48.70
2018-12-15T19:51:17.347Z,46.77
2018-12-15T19:53:44.872Z,46.03
2018-12-15T19:56:12.395Z,47.50
2018-12-15T19:58:39.920Z,51.00
2018-12-15T20:01:07.451Z,49.33
2018-12-15T20:03:35.011Z,50.83
2018-12-15T20:06:02.543Z,51.27
2018-12-15T20:08:30.064Z,51.65
2018-12-15T20:10:57.603Z,47.03
2018-12-15T20:13:25.135Z,49.73
2018-12-15T20:15:52.667Z,48.83
2018-12-15T20:18:20.195Z,52.83
2018-12-15T20:20:47.717Z,50.27
2018-12-15T20:23:15.247Z,47.80
2018-12-15T20:25:42.785Z,49.87
2018-12-15T20:28:10.326Z,56.33
2018-12-15T20:30:37.861Z,47.40
2018-12-15T20:33:05.699Z,49.27
2018-12-15T20:35:33.217Z,51.07
2018-12-15T20:38:00.721Z,50.27
2018-12-15T20:40:28.262Z,52.77
2018-12-15T20:42:55.780Z,51.77
2018-12-15T20:45:23.284Z,48.57
2018-12-15T20:47:50.799Z,53.13
2018-12-15T20:50:18.314Z,49.37
2018-12-15T20:52:47.726Z,50.90
2018-12-15T20:55:15.359Z,50.33
2018-12-15T20:57:42.878Z,48.47
2018-12-15T21:00:10.683Z,51.77
2018-12-15T21:02:38.202Z,51.07
2018-12-15T21:05:06.109Z,49.93
2018-12-15T21:07:33.623Z,50.73
2018-12-15T21:10:01.173Z,52.27
2018-12-15T21:12:28.720Z,54.27
2018-12-15T21:14:58.211Z,51.63
2018-12-15T21:17:25.734Z,50.37
2018-12-15T21:19:53.256Z,51.87
2018-12-15T21:22:20.830Z,51.97
2018-12-15T21:24:48.367Z,52.90
2018-12-15T21:27:15.883Z,50.97
2018-12-15T21:29:43.403Z,51.97
2018-12-15T21:32:10.921Z,50.47
2018-12-15T21:34:38.517Z,51.90
2018-12-15T21:37:06.074Z,54.30
2018-12-15T21:39:33.609Z,49.23
2018-12-15T21:42:01.125Z,50.63
2018-12-15T21:44:28.643Z,51.23
2018-12-15T21:46:56.166Z,49.10
2018-12-15T21:49:23.686Z,49.73
2018-12-15T21:51:56.260Z,49.17
2018-12-15T21:54:20.766Z,50.57
2018-12-15T21:56:48.296Z,51.53
2018-12-15T21:59:15.827Z,46.60
2018-12-15T22:01:43.348Z,52.90
2018-12-15T22:04:10.990Z,50.73
2018-12-15T22:06:38.513Z,51.43
2018-12-15T22:09:06.933Z,53.13
2018-12-15T22:11:34.477Z,50.20
2018-12-15T22:14:03.208Z,50.73
2018-12-15T22:16:31.771Z,51.93
2018-12-15T22:18:59.558Z,52.17
2018-12-15T22:21:27.070Z,48.73
2018-12-15T22:23:54.582Z,52.67
2018-12-15T22:26:22.094Z,49.97
2018-12-15T22:28:49.622Z,46.40
2018-12-15T22:31:17.146Z,53.17
2018-12-15T22:33:44.684Z,46.30
2018-12-15T22:36:12.194Z,52.10
2018-12-15T22:38:39.752Z,48.67
2018-12-15T22:41:07.270Z,51.50
2018-12-15T22:43:34.786Z,48.23
2018-12-15T22:46:02.533Z,47.60
2018-12-15T22:48:30.058Z,48.33
2018-12-15T22:50:57.718Z,45.23
2018-12-15T22:53:25.226Z,49.87
2018-12-15T22:55:52.750Z,46.67
2018-12-15T22:58:20.256Z,45.80
2018-12-15T23:00:53.699Z,43.43
2018-12-15T23:03:21.214Z,41.83
2018-12-15T23:05:48.727Z,45.67
2018-12-15T23:08:16.247Z,47.77
2018-12-15T23:10:43.761Z,46.00
2018-12-15T23:13:11.284Z,41.77
2018-12-15T23:15:38.823Z,38.40
2018-12-15T23:18:06.330Z,44.57
2018-12-15T23:20:33.849Z,39.07
2018-12-15T23:23:01.371Z,38.63
2018-12-15T23:25:28.884Z,41.17
2018-12-15T23:27:56.409Z,38.57
2018-12-15T23:30:23.925Z,39.93
2018-12-15T23:32:51.434Z,40.03
2018-12-15T23:35:18.955Z,40.53
2018-12-15T23:37:46.700Z,32.13
2018-12-15T23:40:14.209Z,35.27
2018-12-15T23:42:41.725Z,35.77
2018-12-15T23:45:09.235Z,35.77
2018-12-15T23:47:36.747Z,37.17
2018-12-15T23:50:05.493Z,31.77
2018-12-15T23:52:33.104Z,34.33
2018-12-15T23:55:00.625Z,33.57
2018-12-15T23:57:28.151Z,38.97
2018-12-15T23:59:55.670Z,37.60
